sensor_id;sensor_type;location;lat;lon;timestamp;noise_LAeq;noise_LA_min;noise_LA_max;noise_LA01;noise_LA95
64642;Laerm;59936;51.490;5.436;2023-07-31T00:05:20;45.45;39.71;53.17;;
64642;Laerm;59936;51.490;5.436;2023-07-31T00:07:49;43.61;38.41;50.33;;
64642;Laerm;59936;51.490;5.436;2023-07-31T00:10:18;45.30;38.00;55.64;;
64642;Laerm;59936;51.490;5.436;2023-07-31T00:12:47;44.75;38.74;52.22;;
64642;Laerm;59936;51.490;5.436;2023-07-31T00:15:15;42.72;38.56;51.48;;
64642;Laerm;59936;51.490;5.436;2023-07-31T00:17:44;45.46;39.49;51.15;;
64642;Laerm;59936;51.490;5.436;2023-07-31T00:20:13;44.99;38.15;51.89;;
64642;Laerm;59936;51.490;5.436;2023-07-31T00:22:41;43.43;36.29;55.88;;
64642;Laerm;59936;51.490;5.436;2023-07-31T00:25:10;43.68;36.36;57.12;;
64642;Laerm;59936;51.490;5.436;2023-07-31T00:27:38;44.57;36.85;53.50;;
64642;Laerm;59936;51.490;5.436;2023-07-31T00:30:07;43.47;37.28;49.76;;
64642;Laerm;59936;51.490;5.436;2023-07-31T00:32:36;41.67;36.51;50.81;;
64642;Laerm;59936;51.490;5.436;2023-07-31T00:35:05;40.99;37.71;46.93;;
64642;Laerm;59936;51.490;5.436;2023-07-31T00:37:33;40.89;35.94;46.99;;
64642;Laerm;59936;51.490;5.436;2023-07-31T00:40:02;43.31;38.02;49.95;;
64642;Laerm;59936;51.490;5.436;2023-07-31T00:42:31;41.64;37.04;48.46;;
64642;Laerm;59936;51.490;5.436;2023-07-31T00:44:59;40.04;35.55;47.03;;
64642;Laerm;59936;51.490;5.436;2023-07-31T00:47:28;42.90;37.97;51.17;;
64642;Laerm;59936;51.490;5.436;2023-07-31T00:49:57;43.59;38.29;50.47;;
64642;Laerm;59936;51.490;5.436;2023-07-31T00:52:26;42.43;36.79;52.91;;
64642;Laerm;59936;51.490;5.436;2023-07-31T00:54:54;42.81;36.09;49.03;;
64642;Laerm;59936;51.490;5.436;2023-07-31T00:57:23;42.50;39.03;55.88;;
64642;Laerm;59936;51.490;5.436;2023-07-31T00:59:52;41.79;37.11;47.80;;
64642;Laerm;59936;51.490;5.436;2023-07-31T01:02:20;41.67;36.92;48.42;;
64642;Laerm;59936;51.490;5.436;2023-07-31T01:04:49;42.51;37.89;47.59;;
64642;Laerm;59936;51.490;5.436;2023-07-31T01:07:42;41.90;37.59;49.72;;
64642;Laerm;59936;51.490;5.436;2023-07-31T01:10:36;45.36;39.82;51.03;;
64642;Laerm;59936;51.490;5.436;2023-07-31T01:13:06;43.23;38.53;49.83;;
64642;Laerm;59936;51.490;5.436;2023-07-31T01:15:36;41.97;37.02;48.18;;
64642;Laerm;59936;51.490;5.436;2023-07-31T01:18:05;42.08;37.81;47.84;;
64642;Laerm;59936;51.490;5.436;2023-07-31T01:20:37;41.87;37.32;46.48;;
64642;Laerm;59936;51.490;5.436;2023-07-31T01:26:34;44.46;37.96;50.94;;
64642;Laerm;59936;51.490;5.436;2023-07-31T01:29:23;45.51;37.09;51.97;;
64642;Laerm;59936;51.490;5.436;2023-07-31T01:31:55;43.78;38.48;51.20;;
64642;Laerm;59936;51.490;5.436;2023-07-31T01:34:26;43.48;38.46;51.14;;
64642;Laerm;59936;51.490;5.436;2023-07-31T01:36:56;44.30;38.17;51.83;;
64642;Laerm;59936;51.490;5.436;2023-07-31T01:39:25;44.79;40.68;51.80;;
64642;Laerm;59936;51.490;5.436;2023-07-31T01:41:53;42.82;39.62;51.37;;
64642;Laerm;59936;51.490;5.436;2023-07-31T01:44:22;44.68;39.58;52.15;;
64642;Laerm;59936;51.490;5.436;2023-07-31T01:46:51;45.27;40.12;51.35;;
64642;Laerm;59936;51.490;5.436;2023-07-31T01:49:19;46.23;41.55;51.44;;
64642;Laerm;59936;51.490;5.436;2023-07-31T01:51:48;45.44;40.34;52.21;;
64642;Laerm;59936;51.490;5.436;2023-07-31T01:54:16;45.83;41.10;52.10;;
64642;Laerm;59936;51.490;5.436;2023-07-31T01:56:45;45.10;39.14;58.80;;
64642;Laerm;59936;51.490;5.436;2023-07-31T01:59:14;44.30;39.79;50.84;;
64642;Laerm;59936;51.490;5.436;2023-07-31T02:01:42;45.72;40.71;50.35;;
64642;Laerm;59936;51.490;5.436;2023-07-31T02:04:11;43.53;39.74;48.54;;
64642;Laerm;59936;51.490;5.436;2023-07-31T02:06:39;45.58;41.54;51.44;;
64642;Laerm;59936;51.490;5.436;2023-07-31T02:09:08;44.39;39.02;50.38;;
64642;Laerm;59936;51.490;5.436;2023-07-31T02:11:36;43.62;39.33;50.00;;
64642;Laerm;59936;51.490;5.436;2023-07-31T02:14:05;43.34;39.63;47.41;;
64642;Laerm;59936;51.490;5.436;2023-07-31T02:16:34;43.26;40.67;46.98;;
64642;Laerm;59936;51.490;5.436;2023-07-31T02:19:02;44.44;40.98;48.84;;
64642;Laerm;59936;51.490;5.436;2023-07-31T02:21:31;44.74;38.82;51.45;;
64642;Laerm;59936;51.490;5.436;2023-07-31T02:23:59;45.29;40.50;49.96;;
64642;Laerm;59936;51.490;5.436;2023-07-31T02:26:28;45.76;41.54;51.11;;
64642;Laerm;59936;51.490;5.436;2023-07-31T02:28:56;45.14;40.94;48.65;;
64642;Laerm;59936;51.490;5.436;2023-07-31T02:31:25;45.94;41.73;58.14;;
64642;Laerm;59936;51.490;5.436;2023-07-31T02:33:54;44.75;40.31;49.09;;
64642;Laerm;59936;51.490;5.436;2023-07-31T02:36:22;44.06;40.95;49.27;;
64642;Laerm;59936;51.490;5.436;2023-07-31T02:38:51;45.34;41.25;51.67;;
64642;Laerm;59936;51.490;5.436;2023-07-31T02:41:19;43.26;39.64;49.94;;
64642;Laerm;59936;51.490;5.436;2023-07-31T02:43:48;46.02;42.68;49.75;;
64642;Laerm;59936;51.490;5.436;2023-07-31T02:46:17;46.07;40.72;50.38;;
64642;Laerm;59936;51.490;5.436;2023-07-31T02:48:45;44.55;40.48;49.86;;
64642;Laerm;59936;51.490;5.436;2023-07-31T02:51:14;45.09;40.75;51.83;;
64642;Laerm;59936;51.490;5.436;2023-07-31T02:53:42;43.86;39.61;51.84;;
64642;Laerm;59936;51.490;5.436;2023-07-31T02:56:11;44.52;40.42;49.02;;
64642;Laerm;59936;51.490;5.436;2023-07-31T02:58:40;44.46;41.00;49.57;;
64642;Laerm;59936;51.490;5.436;2023-07-31T03:01:08;44.76;40.52;50.07;;
64642;Laerm;59936;51.490;5.436;2023-07-31T03:03:37;45.34;42.04;49.27;;
64642;Laerm;59936;51.490;5.436;2023-07-31T03:06:05;44.79;41.56;48.99;;
64642;Laerm;59936;51.490;5.436;2023-07-31T03:08:34;45.36;42.13;48.77;;
64642;Laerm;59936;51.490;5.436;2023-07-31T03:11:02;45.24;41.54;64.49;;
64642;Laerm;59936;51.490;5.436;2023-07-31T03:13:31;45.27;42.23;49.15;;
64642;Laerm;59936;51.490;5.436;2023-07-31T03:15:59;44.22;41.01;48.67;;
64642;Laerm;59936;51.490;5.436;2023-07-31T03:18:28;44.74;40.86;49.47;;
64642;Laerm;59936;51.490;5.436;2023-07-31T03:20:57;45.86;42.23;49.16;;
64642;Laerm;59936;51.490;5.436;2023-07-31T03:23:25;46.97;43.93;51.93;;
64642;Laerm;59936;51.490;5.436;2023-07-31T03:25:58;47.34;43.34;51.61;;
64642;Laerm;59936;51.490;5.436;2023-07-31T03:28:27;48.62;45.83;52.03;;
64642;Laerm;59936;51.490;5.436;2023-07-31T03:30:55;46.97;43.77;50.86;;
64642;Laerm;59936;51.490;5.436;2023-07-31T03:33:24;47.38;42.79;53.12;;
64642;Laerm;59936;51.490;5.436;2023-07-31T03:35:53;47.01;44.35;50.27;;
64642;Laerm;59936;51.490;5.436;2023-07-31T03:38:21;47.58;44.67;52.17;;
64642;Laerm;59936;51.490;5.436;2023-07-31T03:40:50;48.30;44.04;54.04;;
64642;Laerm;59936;51.490;5.436;2023-07-31T03:43:19;47.17;44.61;52.91;;
64642;Laerm;59936;51.490;5.436;2023-07-31T03:45:47;46.89;44.03;50.71;;
64642;Laerm;59936;51.490;5.436;2023-07-31T03:48:16;47.01;44.42;50.62;;
64642;Laerm;59936;51.490;5.436;2023-07-31T03:50:44;47.28;44.66;52.63;;
64642;Laerm;59936;51.490;5.436;2023-07-31T03:53:13;46.16;43.39;51.07;;
64642;Laerm;59936;51.490;5.436;2023-07-31T03:55:42;45.48;41.86;48.50;;
64642;Laerm;59936;51.490;5.436;2023-07-31T03:58:10;45.66;42.20;50.79;;
64642;Laerm;59936;51.490;5.436;2023-07-31T04:00:40;44.98;42.61;47.86;;
64642;Laerm;59936;51.490;5.436;2023-07-31T04:03:09;44.97;42.48;54.67;;
64642;Laerm;59936;51.490;5.436;2023-07-31T04:05:38;44.91;42.38;46.92;;
64642;Laerm;59936;51.490;5.436;2023-07-31T04:08:07;45.73;43.62;51.14;;
64642;Laerm;59936;51.490;5.436;2023-07-31T04:10:36;46.31;43.47;50.74;;
64642;Laerm;59936;51.490;5.436;2023-07-31T04:13:04;46.48;44.26;49.61;;
64642;Laerm;59936;51.490;5.436;2023-07-31T04:15:33;45.97;43.69;50.03;;
64642;Laerm;59936;51.490;5.436;2023-07-31T04:18:01;46.20;44.27;51.36;;
64642;Laerm;59936;51.490;5.436;2023-07-31T04:20:30;46.52;44.38;51.47;;
64642;Laerm;59936;51.490;5.436;2023-07-31T04:22:58;46.88;44.15;60.82;;
64642;Laerm;59936;51.490;5.436;2023-07-31T04:25:27;47.50;45.09;51.91;;
64642;Laerm;59936;51.490;5.436;2023-07-31T04:27:56;48.13;45.88;52.38;;
64642;Laerm;59936;51.490;5.436;2023-07-31T04:30:24;49.94;45.03;60.74;;
64642;Laerm;59936;51.490;5.436;2023-07-31T04:32:53;49.65;45.47;57.18;;
64642;Laerm;59936;51.490;5.436;2023-07-31T04:35:21;49.21;45.30;56.51;;
64642;Laerm;59936;51.490;5.436;2023-07-31T04:37:50;49.38;46.84;52.48;;
64642;Laerm;59936;51.490;5.436;2023-07-31T04:40:18;49.24;46.60;52.46;;
64642;Laerm;59936;51.490;5.436;2023-07-31T04:42:47;48.71;45.82;58.52;;
64642;Laerm;59936;51.490;5.436;2023-07-31T04:45:16;50.43;45.91;57.28;;
64642;Laerm;59936;51.490;5.436;2023-07-31T04:47:44;48.66;46.56;52.55;;
64642;Laerm;59936;51.490;5.436;2023-07-31T04:50:13;48.30;46.31;50.99;;
64642;Laerm;59936;51.490;5.436;2023-07-31T04:52:41;48.31;45.77;50.81;;
64642;Laerm;59936;51.490;5.436;2023-07-31T04:55:10;48.09;46.14;50.41;;
64642;Laerm;59936;51.490;5.436;2023-07-31T04:57:38;47.81;45.46;50.39;;
64642;Laerm;59936;51.490;5.436;2023-07-31T05:00:07;48.03;44.84;52.24;;
64642;Laerm;59936;51.490;5.436;2023-07-31T05:02:36;48.55;46.29;51.63;;
64642;Laerm;59936;51.490;5.436;2023-07-31T05:05:05;48.37;46.12;53.85;;
64642;Laerm;59936;51.490;5.436;2023-07-31T05:07:33;49.89;47.04;52.80;;
64642;Laerm;59936;51.490;5.436;2023-07-31T05:10:02;48.74;46.64;52.54;;
64642;Laerm;59936;51.490;5.436;2023-07-31T05:12:31;49.43;46.69;53.81;;
64642;Laerm;59936;51.490;5.436;2023-07-31T05:14:59;50.12;47.31;54.83;;
64642;Laerm;59936;51.490;5.436;2023-07-31T05:17:28;48.35;46.25;50.94;;
64642;Laerm;59936;51.490;5.436;2023-07-31T05:19:57;50.05;46.94;53.43;;
64642;Laerm;59936;51.490;5.436;2023-07-31T05:22:25;48.21;45.80;50.34;;
64642;Laerm;59936;51.490;5.436;2023-07-31T05:24:54;48.70;46.28;52.64;;
64642;Laerm;59936;51.490;5.436;2023-07-31T05:27:23;49.24;46.02;53.07;;
64642;Laerm;59936;51.490;5.436;2023-07-31T05:29:51;49.10;46.96;57.17;;
64642;Laerm;59936;51.490;5.436;2023-07-31T05:32:20;49.95;47.37;60.01;;
64642;Laerm;59936;51.490;5.436;2023-07-31T05:34:52;50.93;47.81;56.79;;
64642;Laerm;59936;51.490;5.436;2023-07-31T05:37:21;50.86;48.31;53.72;;
64642;Laerm;59936;51.490;5.436;2023-07-31T05:39:49;51.20;47.15;54.58;;
64642;Laerm;59936;51.490;5.436;2023-07-31T05:42:18;51.90;49.75;53.91;;
64642;Laerm;59936;51.490;5.436;2023-07-31T05:44:46;53.38;49.94;56.93;;
64642;Laerm;59936;51.490;5.436;2023-07-31T05:47:15;52.45;49.04;56.21;;
64642;Laerm;59936;51.490;5.436;2023-07-31T05:49:44;51.42;48.44;60.41;;
64642;Laerm;59936;51.490;5.436;2023-07-31T05:52:12;52.26;48.42;70.07;;
64642;Laerm;59936;51.490;5.436;2023-07-31T05:54:42;50.56;47.45;60.13;;
64642;Laerm;59936;51.490;5.436;2023-07-31T05:57:10;52.73;50.05;58.28;;
64642;Laerm;59936;51.490;5.436;2023-07-31T05:59:39;57.22;52.33;60.74;;
64642;Laerm;59936;51.490;5.436;2023-07-31T06:02:07;54.99;51.70;57.18;;
64642;Laerm;59936;51.490;5.436;2023-07-31T06:04:36;53.01;50.06;61.20;;
64642;Laerm;59936;51.490;5.436;2023-07-31T06:07:05;50.34;48.42;53.50;;
64642;Laerm;59936;51.490;5.436;2023-07-31T06:09:33;55.39;49.29;67.05;;
64642;Laerm;59936;51.490;5.436;2023-07-31T06:12:02;52.92;49.88;60.93;;
64642;Laerm;59936;51.490;5.436;2023-07-31T06:14:31;52.55;49.67;55.68;;
64642;Laerm;59936;51.490;5.436;2023-07-31T06:16:59;56.13;51.86;64.72;;
64642;Laerm;59936;51.490;5.436;2023-07-31T06:19:28;57.38;52.37;67.06;;
64642;Laerm;59936;51.490;5.436;2023-07-31T06:21:57;55.57;50.00;71.54;;
64642;Laerm;59936;51.490;5.436;2023-07-31T06:24:25;54.58;48.13;65.85;;
64642;Laerm;59936;51.490;5.436;2023-07-31T06:26:54;54.40;48.92;66.22;;
64642;Laerm;59936;51.490;5.436;2023-07-31T06:29:22;49.74;47.60;52.79;;
64642;Laerm;59936;51.490;5.436;2023-07-31T06:31:51;50.67;46.94;67.56;;
64642;Laerm;59936;51.490;5.436;2023-07-31T06:34:19;50.33;46.85;56.59;;
64642;Laerm;59936;51.490;5.436;2023-07-31T06:36:48;49.79;47.87;53.39;;
64642;Laerm;59936;51.490;5.436;2023-07-31T06:39:17;54.49;47.75;65.34;;
64642;Laerm;59936;51.490;5.436;2023-07-31T06:41:45;50.91;47.96;54.55;;
64642;Laerm;59936;51.490;5.436;2023-07-31T06:44:14;52.35;47.27;61.04;;
64642;Laerm;59936;51.490;5.436;2023-07-31T06:46:43;50.27;46.88;53.38;;
64642;Laerm;59936;51.490;5.436;2023-07-31T06:49:11;49.97;47.25;52.54;;
64642;Laerm;59936;51.490;5.436;2023-07-31T06:51:40;54.02;47.27;65.69;;
64642;Laerm;59936;51.490;5.436;2023-07-31T06:54:09;52.32;48.09;65.64;;
64642;Laerm;59936;51.490;5.436;2023-07-31T06:56:37;50.64;47.66;56.78;;
64642;Laerm;59936;51.490;5.436;2023-07-31T06:59:06;50.61;47.53;57.24;;
64642;Laerm;59936;51.490;5.436;2023-07-31T07:01:34;50.84;46.69;56.28;;
64642;Laerm;59936;51.490;5.436;2023-07-31T07:04:04;50.52;48.44;54.83;;
64642;Laerm;59936;51.490;5.436;2023-07-31T07:06:32;50.18;47.38;53.99;;
64642;Laerm;59936;51.490;5.436;2023-07-31T07:09:01;51.05;47.62;55.86;;
64642;Laerm;59936;51.490;5.436;2023-07-31T07:11:30;49.99;47.43;53.55;;
64642;Laerm;59936;51.490;5.436;2023-07-31T07:13:58;51.51;48.02;60.10;;
64642;Laerm;59936;51.490;5.436;2023-07-31T07:16:28;53.79;50.69;56.44;;
64642;Laerm;59936;51.490;5.436;2023-07-31T07:18:57;57.00;53.44;64.20;;
64642;Laerm;59936;51.490;5.436;2023-07-31T07:21:25;55.05;49.41;64.17;;
64642;Laerm;59936;51.490;5.436;2023-07-31T07:23:54;51.68;48.28;57.08;;
64642;Laerm;59936;51.490;5.436;2023-07-31T07:26:22;51.04;48.38;53.74;;
64642;Laerm;59936;51.490;5.436;2023-07-31T07:28:51;51.32;47.04;56.87;;
64642;Laerm;59936;51.490;5.436;2023-07-31T07:31:20;51.25;46.72;56.66;;
64642;Laerm;59936;51.490;5.436;2023-07-31T07:33:48;53.49;48.17;65.61;;
64642;Laerm;59936;51.490;5.436;2023-07-31T07:36:17;52.53;48.42;65.34;;
64642;Laerm;59936;51.490;5.436;2023-07-31T07:38:45;51.39;48.48;55.10;;
64642;Laerm;59936;51.490;5.436;2023-07-31T07:41:14;52.26;49.32;56.74;;
64642;Laerm;59936;51.490;5.436;2023-07-31T07:43:42;50.83;47.87;55.63;;
64642;Laerm;59936;51.490;5.436;2023-07-31T07:46:11;54.42;46.68;67.33;;
64642;Laerm;59936;51.490;5.436;2023-07-31T07:48:40;50.74;47.98;56.55;;
64642;Laerm;59936;51.490;5.436;2023-07-31T07:51:08;49.86;47.42;61.03;;
64642;Laerm;59936;51.490;5.436;2023-07-31T07:53:37;48.90;46.84;54.64;;
64642;Laerm;59936;51.490;5.436;2023-07-31T07:56:05;50.38;47.91;54.15;;
64642;Laerm;59936;51.490;5.436;2023-07-31T07:58:34;55.20;48.35;65.44;;
64642;Laerm;59936;51.490;5.436;2023-07-31T08:01:02;49.73;47.34;52.98;;
64642;Laerm;59936;51.490;5.436;2023-07-31T08:03:31;49.91;47.15;54.64;;
64642;Laerm;59936;51.490;5.436;2023-07-31T08:06:01;50.26;47.71;54.69;;
64642;Laerm;59936;51.490;5.436;2023-07-31T08:08:29;50.12;47.59;53.89;;
64642;Laerm;59936;51.490;5.436;2023-07-31T08:10:58;49.88;46.49;53.95;;
64642;Laerm;59936;51.490;5.436;2023-07-31T08:13:27;52.57;47.20;64.96;;
64642;Laerm;59936;51.490;5.436;2023-07-31T08:15:56;52.39;48.23;62.68;;
64642;Laerm;59936;51.490;5.436;2023-07-31T08:18:30;54.95;48.31;67.87;;
64642;Laerm;59936;51.490;5.436;2023-07-31T08:21:02;49.57;47.48;52.14;;
64642;Laerm;59936;51.490;5.436;2023-07-31T08:23:31;54.27;48.14;65.76;;
64642;Laerm;59936;51.490;5.436;2023-07-31T08:25:59;51.13;47.82;57.18;;
64642;Laerm;59936;51.490;5.436;2023-07-31T08:28:28;50.84;47.68;56.35;;
64642;Laerm;59936;51.490;5.436;2023-07-31T08:30:58;54.92;47.91;66.86;;
64642;Laerm;59936;51.490;5.436;2023-07-31T08:33:26;50.18;47.59;53.63;;
64642;Laerm;59936;51.490;5.436;2023-07-31T08:35:55;49.41;46.82;52.63;;
64642;Laerm;59936;51.490;5.436;2023-07-31T08:38:24;50.53;47.03;54.91;;
64642;Laerm;59936;51.490;5.436;2023-07-31T08:40:52;49.33;46.80;52.50;;
64642;Laerm;59936;51.490;5.436;2023-07-31T08:43:25;49.28;46.93;52.56;;
64642;Laerm;59936;51.490;5.436;2023-07-31T08:45:54;50.61;47.98;53.96;;
64642;Laerm;59936;51.490;5.436;2023-07-31T08:48:23;50.68;47.76;52.88;;
64642;Laerm;59936;51.490;5.436;2023-07-31T08:50:53;50.00;47.69;57.12;;
64642;Laerm;59936;51.490;5.436;2023-07-31T08:53:21;50.43;48.33;53.00;;
64642;Laerm;59936;51.490;5.436;2023-07-31T08:55:53;51.09;47.92;56.62;;
64642;Laerm;59936;51.490;5.436;2023-07-31T08:58:23;49.84;47.01;53.15;;
64642;Laerm;59936;51.490;5.436;2023-07-31T09:00:53;54.58;46.52;65.09;;
64642;Laerm;59936;51.490;5.436;2023-07-31T09:03:25;51.56;48.00;58.24;;
64642;Laerm;59936;51.490;5.436;2023-07-31T09:05:56;52.22;47.96;67.18;;
64642;Laerm;59936;51.490;5.436;2023-07-31T09:08:29;53.93;48.25;67.10;;
64642;Laerm;59936;51.490;5.436;2023-07-31T09:11:02;50.98;48.00;61.02;;
64642;Laerm;59936;51.490;5.436;2023-07-31T09:13:32;50.20;47.09;57.70;;
64642;Laerm;59936;51.490;5.436;2023-07-31T09:16:00;50.34;46.66;55.81;;
64642;Laerm;59936;51.490;5.436;2023-07-31T09:18:29;54.35;47.31;66.38;;
64642;Laerm;59936;51.490;5.436;2023-07-31T09:21:05;53.45;46.79;67.24;;
64642;Laerm;59936;51.490;5.436;2023-07-31T09:23:46;49.25;46.28;54.31;;
64642;Laerm;59936;51.490;5.436;2023-07-31T09:26:36;48.92;46.30;54.65;;
64642;Laerm;59936;51.490;5.436;2023-07-31T09:29:07;49.78;47.13;53.54;;
64642;Laerm;59936;51.490;5.436;2023-07-31T09:31:46;50.32;46.47;58.21;;
64642;Laerm;59936;51.490;5.436;2023-07-31T09:34:15;49.92;45.79;56.25;;
64642;Laerm;59936;51.490;5.436;2023-07-31T09:36:49;50.05;45.93;60.56;;
64642;Laerm;59936;51.490;5.436;2023-07-31T09:39:18;54.07;47.64;67.08;;
64642;Laerm;59936;51.490;5.436;2023-07-31T09:41:56;49.51;46.68;53.28;;
64642;Laerm;59936;51.490;5.436;2023-07-31T09:44:39;49.29;45.40;53.81;;
64642;Laerm;59936;51.490;5.436;2023-07-31T09:47:24;48.73;45.76;53.42;;
64642;Laerm;59936;51.490;5.436;2023-07-31T09:49:52;49.55;46.43;52.78;;
64642;Laerm;59936;51.490;5.436;2023-07-31T09:52:21;48.40;45.20;52.11;;
64642;Laerm;59936;51.490;5.436;2023-07-31T09:54:50;49.27;46.71;55.24;;
64642;Laerm;59936;51.490;5.436;2023-07-31T09:57:22;54.28;46.10;66.30;;
64642;Laerm;59936;51.490;5.436;2023-07-31T09:59:52;48.95;46.84;60.57;;
64642;Laerm;59936;51.490;5.436;2023-07-31T10:02:22;49.05;46.26;53.13;;
64642;Laerm;59936;51.490;5.436;2023-07-31T10:04:57;48.76;46.50;52.24;;
64642;Laerm;59936;51.490;5.436;2023-07-31T10:07:27;50.68;46.62;61.29;;
64642;Laerm;59936;51.490;5.436;2023-07-31T10:10:00;54.45;47.64;67.81;;
64642;Laerm;59936;51.490;5.436;2023-07-31T10:12:32;53.62;46.62;66.41;;
64642;Laerm;59936;51.490;5.436;2023-07-31T10:15:02;48.93;45.81;53.13;;
64642;Laerm;59936;51.490;5.436;2023-07-31T10:17:33;50.37;46.67;56.14;;
64642;Laerm;59936;51.490;5.436;2023-07-31T10:20:06;49.97;46.10;53.70;;
64642;Laerm;59936;51.490;5.436;2023-07-31T10:22:35;49.19;46.39;54.03;;
64642;Laerm;59936;51.490;5.436;2023-07-31T10:25:08;48.85;46.23;52.41;;
64642;Laerm;59936;51.490;5.436;2023-07-31T10:27:39;48.75;45.81;51.68;;
64642;Laerm;59936;51.490;5.436;2023-07-31T10:30:14;54.30;45.02;67.48;;
64642;Laerm;59936;51.490;5.436;2023-07-31T10:32:45;49.87;46.52;54.30;;
64642;Laerm;59936;51.490;5.436;2023-07-31T10:35:17;49.33;46.49;52.93;;
64642;Laerm;59936;51.490;5.436;2023-07-31T10:37:46;51.19;46.31;57.71;;
64642;Laerm;59936;51.490;5.436;2023-07-31T10:40:26;49.38;47.20;53.63;;
64642;Laerm;59936;51.490;5.436;2023-07-31T10:42:56;50.07;47.58;56.07;;
64642;Laerm;59936;51.490;5.436;2023-07-31T10:45:48;54.55;47.82;65.70;;
64642;Laerm;59936;51.490;5.436;2023-07-31T10:48:17;50.69;47.49;55.05;;
64642;Laerm;59936;51.490;5.436;2023-07-31T10:50:51;51.38;48.38;54.76;;
64642;Laerm;59936;51.490;5.436;2023-07-31T10:53:30;50.18;47.50;57.56;;
64642;Laerm;59936;51.490;5.436;2023-07-31T10:56:10;50.17;46.72;57.63;;
64642;Laerm;59936;51.490;5.436;2023-07-31T10:58:38;50.59;47.56;54.41;;
64642;Laerm;59936;51.490;5.436;2023-07-31T11:01:07;50.15;46.15;55.24;;
64642;Laerm;59936;51.490;5.436;2023-07-31T11:03:45;49.33;46.67;54.12;;
64642;Laerm;59936;51.490;5.436;2023-07-31T11:06:16;50.37;47.40;53.67;;
64642;Laerm;59936;51.490;5.436;2023-07-31T11:08:47;49.68;46.41;57.27;;
64642;Laerm;59936;51.490;5.436;2023-07-31T11:11:18;49.26;46.15;58.21;;
64642;Laerm;59936;51.490;5.436;2023-07-31T11:13:50;50.60;47.30;56.77;;
64642;Laerm;59936;51.490;5.436;2023-07-31T11:16:23;52.52;48.37;58.42;;
64642;Laerm;59936;51.490;5.436;2023-07-31T11:18:53;51.82;48.77;61.07;;
64642;Laerm;59936;51.490;5.436;2023-07-31T11:21:24;55.13;47.25;68.63;;
64642;Laerm;59936;51.490;5.436;2023-07-31T11:23:56;51.65;48.84;55.20;;
64642;Laerm;59936;51.490;5.436;2023-07-31T11:26:25;54.66;46.56;67.27;;
64642;Laerm;59936;51.490;5.436;2023-07-31T11:28:54;51.40;48.03;55.15;;
64642;Laerm;59936;51.490;5.436;2023-07-31T11:31:22;51.10;46.73;59.28;;
64642;Laerm;59936;51.490;5.436;2023-07-31T11:34:05;54.51;47.17;66.32;;
64642;Laerm;59936;51.490;5.436;2023-07-31T11:36:33;54.88;45.80;71.64;;
64642;Laerm;59936;51.490;5.436;2023-07-31T11:39:09;54.30;46.45;68.31;;
64642;Laerm;59936;51.490;5.436;2023-07-31T11:41:41;49.18;44.84;55.26;;
64642;Laerm;59936;51.490;5.436;2023-07-31T11:44:09;54.40;47.86;66.73;;
64642;Laerm;59936;51.490;5.436;2023-07-31T11:46:38;54.93;48.51;66.33;;
64642;Laerm;59936;51.490;5.436;2023-07-31T11:49:08;51.17;48.21;61.59;;
64642;Laerm;59936;51.490;5.436;2023-07-31T11:51:37;53.62;45.80;66.67;;
64642;Laerm;59936;51.490;5.436;2023-07-31T11:54:06;53.92;47.05;65.37;;
64642;Laerm;59936;51.490;5.436;2023-07-31T11:56:35;53.53;46.19;66.81;;
64642;Laerm;59936;51.490;5.436;2023-07-31T11:59:03;48.19;46.18;56.24;;
64642;Laerm;59936;51.490;5.436;2023-07-31T12:01:33;48.12;45.98;51.19;;
64642;Laerm;59936;51.490;5.436;2023-07-31T12:04:01;47.49;45.67;50.01;;
64642;Laerm;59936;51.490;5.436;2023-07-31T12:06:35;49.71;46.54;61.75;;
64642;Laerm;59936;51.490;5.436;2023-07-31T12:09:04;50.66;46.47;60.72;;
64642;Laerm;59936;51.490;5.436;2023-07-31T12:11:45;48.76;46.38;53.44;;
64642;Laerm;59936;51.490;5.436;2023-07-31T12:14:25;48.01;44.90;52.48;;
64642;Laerm;59936;51.490;5.436;2023-07-31T12:17:20;47.87;45.68;51.44;;
64642;Laerm;59936;51.490;5.436;2023-07-31T12:19:49;49.32;46.06;53.83;;
64642;Laerm;59936;51.490;5.436;2023-07-31T12:22:20;49.54;46.86;56.45;;
64642;Laerm;59936;51.490;5.436;2023-07-31T12:24:48;56.22;46.89;71.52;;
64642;Laerm;59936;51.490;5.436;2023-07-31T12:27:17;50.12;46.77;66.33;;
64642;Laerm;59936;51.490;5.436;2023-07-31T12:29:46;49.28;45.38;64.37;;
64642;Laerm;59936;51.490;5.436;2023-07-31T12:32:24;48.43;45.00;58.40;;
64642;Laerm;59936;51.490;5.436;2023-07-31T12:34:53;47.39;44.82;56.48;;
64642;Laerm;59936;51.490;5.436;2023-07-31T12:37:22;53.79;45.19;66.40;;
64642;Laerm;59936;51.490;5.436;2023-07-31T12:39:50;48.11;44.63;60.61;;
64642;Laerm;59936;51.490;5.436;2023-07-31T12:42:19;48.51;45.58;54.12;;
64642;Laerm;59936;51.490;5.436;2023-07-31T12:44:48;47.78;44.54;52.52;;
64642;Laerm;59936;51.490;5.436;2023-07-31T12:47:16;47.99;45.08;53.03;;
64642;Laerm;59936;51.490;5.436;2023-07-31T12:49:45;48.82;46.44;57.14;;
64642;Laerm;59936;51.490;5.436;2023-07-31T12:52:13;48.21;46.00;55.99;;
64642;Laerm;59936;51.490;5.436;2023-07-31T12:54:42;56.43;46.53;70.29;;
64642;Laerm;59936;51.490;5.436;2023-07-31T12:57:10;48.31;44.64;57.58;;
64642;Laerm;59936;51.490;5.436;2023-07-31T12:59:39;47.82;45.26;50.46;;
64642;Laerm;59936;51.490;5.436;2023-07-31T13:02:07;49.57;45.59;59.78;;
64642;Laerm;59936;51.490;5.436;2023-07-31T13:04:36;50.23;47.44;52.76;;
64642;Laerm;59936;51.490;5.436;2023-07-31T13:07:05;48.73;45.25;52.41;;
64642;Laerm;59936;51.490;5.436;2023-07-31T13:09:34;51.24;46.97;56.55;;
64642;Laerm;59936;51.490;5.436;2023-07-31T13:12:02;53.34;48.44;70.71;;
64642;Laerm;59936;51.490;5.436;2023-07-31T13:14:31;50.27;46.43;53.00;;
64642;Laerm;59936;51.490;5.436;2023-07-31T13:17:00;49.62;45.98;53.07;;
64642;Laerm;59936;51.490;5.436;2023-07-31T13:19:28;49.58;46.62;54.66;;
64642;Laerm;59936;51.490;5.436;2023-07-31T13:21:57;54.63;47.40;66.38;;
64642;Laerm;59936;51.490;5.436;2023-07-31T13:24:25;53.94;47.06;60.64;;
64642;Laerm;59936;51.490;5.436;2023-07-31T13:26:56;51.76;46.75;65.76;;
64642;Laerm;59936;51.490;5.436;2023-07-31T13:29:25;51.88;46.26;64.98;;
64642;Laerm;59936;51.490;5.436;2023-07-31T13:31:53;52.03;45.86;64.11;;
64642;Laerm;59936;51.490;5.436;2023-07-31T13:34:22;49.37;45.49;60.22;;
64642;Laerm;59936;51.490;5.436;2023-07-31T13:36:51;48.07;45.65;51.88;;
64642;Laerm;59936;51.490;5.436;2023-07-31T13:39:19;49.48;46.02;63.89;;
64642;Laerm;59936;51.490;5.436;2023-07-31T13:41:48;48.31;45.43;53.80;;
64642;Laerm;59936;51.490;5.436;2023-07-31T13:44:16;49.51;45.49;55.27;;
64642;Laerm;59936;51.490;5.436;2023-07-31T13:46:45;48.82;45.53;56.91;;
64642;Laerm;59936;51.490;5.436;2023-07-31T13:49:14;47.45;45.62;50.44;;
64642;Laerm;59936;51.490;5.436;2023-07-31T13:51:42;47.25;44.71;50.97;;
64642;Laerm;59936;51.490;5.436;2023-07-31T13:54:11;47.10;44.73;51.09;;
64642;Laerm;59936;51.490;5.436;2023-07-31T13:56:40;51.14;44.98;70.04;;
64642;Laerm;59936;51.490;5.436;2023-07-31T13:59:08;49.39;45.56;66.77;;
64642;Laerm;59936;51.490;5.436;2023-07-31T14:01:37;47.73;44.72;52.76;;
64642;Laerm;59936;51.490;5.436;2023-07-31T14:04:06;48.12;44.35;51.14;;
64642;Laerm;59936;51.490;5.436;2023-07-31T14:06:35;49.92;46.99;61.69;;